sensor_id;sensor_type;location;lat;lon;timestamp;P1;durP1;ratioP1;P2;durP2;ratioP2
2147;SDS011;1080;48.724;9.104;2023-08-01T18:57:02;2.80;;;1.80;;
2147;SDS011;1080;48.724;9.104;2023-08-01T18:59:30;5.83;;;5.40;;
2147;SDS011;1080;48.724;9.104;2023-08-01T19:01:58;13.17;;;12.37;;
2147;SDS011;1080;48.724;9.104;2023-08-01T19:04:26;2.47;;;1.47;;
2147;SDS011;1080;48.724;9.104;2023-08-01T19:06:53;15.00;;;13.83;;
2147;SDS011;1080;48.724;9.104;2023-08-01T19:09:20;5.33;;;4.80;;
2147;SDS011;1080;48.724;9.104;2023-08-01T19:11:47;4.33;;;2.00;;
2147;SDS011;1080;48.724;9.104;2023-08-01T19:14:16;10.47;;;8.03;;
2147;SDS011;1080;48.724;9.104;2023-08-01T19:16:43;2.77;;;2.37;;
2147;SDS011;1080;48.724;9.104;2023-08-01T19:19:10;2.83;;;2.37;;
2147;SDS011;1080;48.724;9.104;2023-08-01T19:21:37;3.80;;;1.90;;
2147;SDS011;1080;48.724;9.104;2023-08-01T19:24:04;12.13;;;11.30;;
2147;SDS011;1080;48.724;9.104;2023-08-01T19:26:31;14.17;;;12.83;;
2147;SDS011;1080;48.724;9.104;2023-08-01T19:28:58;30.37;;;28.03;;
2147;SDS011;1080;48.724;9.104;2023-08-01T19:31:27;23.13;;;21.43;;
2147;SDS011;1080;48.724;9.104;2023-08-01T19:33:54;28.10;;;26.10;;
2147;SDS011;1080;48.724;9.104;2023-08-01T19:36:21;7.23;;;5.30;;
2147;SDS011;1080;48.724;9.104;2023-08-01T19:38:48;11.37;;;10.67;;
2147;SDS011;1080;48.724;9.104;2023-08-01T19:41:17;13.90;;;12.90;;
2147;SDS011;1080;48.724;9.104;2023-08-01T19:43:44;95.83;;;62.20;;
2147;SDS011;1080;48.724;9.104;2023-08-01T19:46:12;2.63;;;2.43;;
2147;SDS011;1080;48.724;9.104;2023-08-01T19:48:41;3.43;;;2.97;;
2147;SDS011;1080;48.724;9.104;2023-08-01T19:51:10;2.70;;;1.77;;
2147;SDS011;1080;48.724;9.104;2023-08-01T19:53:37;3.97;;;1.80;;
2147;SDS011;1080;48.724;9.104;2023-08-01T19:56:04;4.80;;;1.73;;
2147;SDS011;1080;48.724;9.104;2023-08-01T19:58:31;3.30;;;1.80;;
2147;SDS011;1080;48.724;9.104;2023-08-01T20:00:58;1.57;;;1.47;;
2147;SDS011;1080;48.724;9.104;2023-08-01T20:03:26;3.20;;;1.90;;
2147;SDS011;1080;48.724;9.104;2023-08-01T20:05:58;2.33;;;1.90;;
2147;SDS011;1080;48.724;9.104;2023-08-01T20:08:25;6.40;;;1.90;;
2147;SDS011;1080;48.724;9.104;2023-08-01T20:10:56;2.20;;;1.63;;
2147;SDS011;1080;48.724;9.104;2023-08-01T20:13:23;1.63;;;1.27;;
2147;SDS011;1080;48.724;9.104;2023-08-01T20:15:50;13.97;;;10.27;;
2147;SDS011;1080;48.724;9.104;2023-08-01T20:18:17;1.73;;;1.30;;
2147;SDS011;1080;48.724;9.104;2023-08-01T20:20:45;2.93;;;2.03;;
2147;SDS011;1080;48.724;9.104;2023-08-01T20:23:13;3.00;;;2.10;;
2147;SDS011;1080;48.724;9.104;2023-08-01T20:25:41;2.70;;;1.63;;
2147;SDS011;1080;48.724;9.104;2023-08-01T20:28:08;2.07;;;1.50;;
2147;SDS011;1080;48.724;9.104;2023-08-01T20:30:35;3.37;;;1.80;;
2147;SDS011;1080;48.724;9.104;2023-08-01T20:33:02;6.43;;;1.70;;
2147;SDS011;1080;48.724;9.104;2023-08-01T20:35:30;3.07;;;1.60;;
2147;SDS011;1080;48.724;9.104;2023-08-01T20:37:57;1.77;;;1.50;;
2147;SDS011;1080;48.724;9.104;2023-08-01T20:40:25;3.30;;;1.50;;
2147;SDS011;1080;48.724;9.104;2023-08-01T20:42:53;2.37;;;1.50;;
2147;SDS011;1080;48.724;9.104;2023-08-01T20:45:20;2.30;;;1.40;;
2147;SDS011;1080;48.724;9.104;2023-08-01T20:47:47;5.77;;;1.70;;
2147;SDS011;1080;48.724;9.104;2023-08-01T20:50:14;2.13;;;1.43;;
2147;SDS011;1080;48.724;9.104;2023-08-01T20:52:41;3.80;;;1.77;;
2147;SDS011;1080;48.724;9.104;2023-08-01T20:55:08;1.77;;;1.40;;
2147;SDS011;1080;48.724;9.104;2023-08-01T20:57:37;2.93;;;1.50;;
2147;SDS011;1080;48.724;9.104;2023-08-01T21:00:04;2.70;;;1.60;;
2147;SDS011;1080;48.724;9.104;2023-08-01T21:02:32;3.63;;;1.70;;
2147;SDS011;1080;48.724;9.104;2023-08-01T21:04:59;4.23;;;1.50;;
2147;SDS011;1080;48.724;9.104;2023-08-01T21:07:28;3.33;;;1.50;;
2147;SDS011;1080;48.724;9.104;2023-08-01T21:09:55;3.83;;;1.33;;
2147;SDS011;1080;48.724;9.104;2023-08-01T21:12:22;3.43;;;1.40;;
2147;SDS011;1080;48.724;9.104;2023-08-01T21:14:52;2.50;;;1.53;;
2147;SDS011;1080;48.724;9.104;2023-08-01T21:17:19;2.37;;;1.60;;
2147;SDS011;1080;48.724;9.104;2023-08-01T21:19:46;2.47;;;1.30;;
2147;SDS011;1080;48.724;9.104;2023-08-01T21:22:14;2.47;;;1.60;;
2147;SDS011;1080;48.724;9.104;2023-08-01T21:24:41;2.30;;;1.20;;
2147;SDS011;1080;48.724;9.104;2023-08-01T21:27:08;2.00;;;1.13;;
2147;SDS011;1080;48.724;9.104;2023-08-01T21:29:35;4.20;;;1.40;;
2147;SDS011;1080;48.724;9.104;2023-08-01T21:32:04;8.60;;;1.53;;
2147;SDS011;1080;48.724;9.104;2023-08-01T21:34:31;3.97;;;1.80;;
2147;SDS011;1080;48.724;9.104;2023-08-01T21:36:58;3.07;;;1.70;;
2147;SDS011;1080;48.724;9.104;2023-08-01T21:39:25;2.60;;;1.53;;
2147;SDS011;1080;48.724;9.104;2023-08-01T21:41:54;5.33;;;2.73;;
2147;SDS011;1080;48.724;9.104;2023-08-01T21:44:21;4.27;;;1.60;;
2147;SDS011;1080;48.724;9.104;2023-08-01T21:46:49;2.10;;;1.57;;
2147;SDS011;1080;48.724;9.104;2023-08-01T21:49:17;4.50;;;1.60;;
2147;SDS011;1080;48.724;9.104;2023-08-01T21:51:44;2.30;;;1.07;;
2147;SDS011;1080;48.724;9.104;2023-08-01T21:54:11;3.40;;;1.50;;
2147;SDS011;1080;48.724;9.104;2023-08-01T21:56:38;3.57;;;1.13;;
2147;SDS011;1080;48.724;9.104;2023-08-01T21:59:05;4.80;;;3.00;;
2147;SDS011;1080;48.724;9.104;2023-08-01T22:01:33;6.80;;;3.80;;
2147;SDS011;1080;48.724;9.104;2023-08-01T22:04:00;4.33;;;2.80;;
2147;SDS011;1080;48.724;9.104;2023-08-01T22:06:28;3.00;;;1.50;;
2147;SDS011;1080;48.724;9.104;2023-08-01T22:08:56;3.70;;;1.63;;
2147;SDS011;1080;48.724;9.104;2023-08-01T22:11:23;2.30;;;1.80;;
2147;SDS011;1080;48.724;9.104;2023-08-01T22:13:50;5.70;;;3.37;;
2147;SDS011;1080;48.724;9.104;2023-08-01T22:16:17;3.83;;;1.80;;
2147;SDS011;1080;48.724;9.104;2023-08-01T22:18:44;139.30;;;62.87;;
2147;SDS011;1080;48.724;9.104;2023-08-01T22:21:11;207.47;;;82.63;;
2147;SDS011;1080;48.724;9.104;2023-08-01T22:23:40;36.60;;;33.40;;
2147;SDS011;1080;48.724;9.104;2023-08-01T22:26:07;123.10;;;62.17;;
2147;SDS011;1080;48.724;9.104;2023-08-01T22:28:34;15.70;;;14.57;;
2147;SDS011;1080;48.724;9.104;2023-08-01T22:31:01;27.37;;;25.50;;
2147;SDS011;1080;48.724;9.104;2023-08-01T22:33:28;75.50;;;50.10;;
2147;SDS011;1080;48.724;9.104;2023-08-01T22:35:56;104.80;;;59.07;;
2147;SDS011;1080;48.724;9.104;2023-08-01T22:38:23;130.37;;;63.10;;
2147;SDS011;1080;48.724;9.104;2023-08-01T22:40:51;76.80;;;54.40;;
2147;SDS011;1080;48.724;9.104;2023-08-01T22:43:18;188.50;;;78.33;;
2147;SDS011;1080;48.724;9.104;2023-08-01T22:45:53;166.00;;;75.37;;
2147;SDS011;1080;48.724;9.104;2023-08-01T22:48:20;206.73;;;84.37;;
2147;SDS011;1080;48.724;9.104;2023-08-01T22:50:47;207.50;;;82.70;;
2147;SDS011;1080;48.724;9.104;2023-08-01T22:53:14;207.13;;;84.13;;
2147;SDS011;1080;48.724;9.104;2023-08-01T22:55:42;54.80;;;44.57;;
2147;SDS011;1080;48.724;9.104;2023-08-01T22:58:11;4.90;;;4.47;;
2147;SDS011;1080;48.724;9.104;2023-08-01T23:00:38;19.13;;;14.70;;
2147;SDS011;1080;48.724;9.104;2023-08-01T23:03:05;5.00;;;2.50;;
2147;SDS011;1080;48.724;9.104;2023-08-01T23:05:32;2.40;;;1.50;;
2147;SDS011;1080;48.724;9.104;2023-08-01T23:07:59;3.43;;;2.23;;
2147;SDS011;1080;48.724;9.104;2023-08-01T23:10:26;1.93;;;1.60;;
2147;SDS011;1080;48.724;9.104;2023-08-01T23:12:54;3.30;;;2.07;;
2147;SDS011;1080;48.724;9.104;2023-08-01T23:15:22;6.27;;;5.70;;
2147;SDS011;1080;48.724;9.104;2023-08-01T23:17:49;5.13;;;2.33;;
2147;SDS011;1080;48.724;9.104;2023-08-01T23:20:16;3.53;;;1.40;;
2147;SDS011;1080;48.724;9.104;2023-08-01T23:22:43;3.47;;;1.83;;
2147;SDS011;1080;48.724;9.104;2023-08-01T23:25:10;2.57;;;1.30;;
2147;SDS011;1080;48.724;9.104;2023-08-01T23:27:37;3.80;;;1.70;;
2147;SDS011;1080;48.724;9.104;2023-08-01T23:30:05;2.93;;;1.73;;
2147;SDS011;1080;48.724;9.104;2023-08-01T23:32:34;6.60;;;2.93;;
2147;SDS011;1080;48.724;9.104;2023-08-01T23:35:01;2.47;;;1.70;;
2147;SDS011;1080;48.724;9.104;2023-08-01T23:37:29;4.13;;;1.93;;
2147;SDS011;1080;48.724;9.104;2023-08-01T23:39:56;4.17;;;2.10;;
2147;SDS011;1080;48.724;9.104;2023-08-01T23:42:23;3.17;;;2.07;;
2147;SDS011;1080;48.724;9.104;2023-08-01T23:44:50;1.87;;;1.20;;
2147;SDS011;1080;48.724;9.104;2023-08-01T23:47:17;3.20;;;1.73;;
2147;SDS011;1080;48.724;9.104;2023-08-01T23:49:45;4.73;;;2.10;;
2147;SDS011;1080;48.724;9.104;2023-08-01T23:52:12;3.20;;;1.97;;
2147;SDS011;1080;48.724;9.104;2023-08-01T23:54:39;4.00;;;2.83;;
2147;SDS011;1080;48.724;9.104;2023-08-01T23:57:07;2.63;;;1.60;;
2147;SDS011;1080;48.724;9.104;2023-08-01T23:59:34;2.43;;;1.50;;
